This is the latest recevied weather packets stored in our database for station/object ED1ZAI-13. If no packets are shown the sender has not sent any weather packets the latest 10 day(s).
| Time | Temp. | Humidity | Pressure | Rain* | Wind** | Luminosity | Snow |
|---|---|---|---|---|---|---|---|
| 1777747390 | 12.22° C | 85% | 1013.7 hPa | 0.51 mm | - | - | - |
| 1777746790 | 11.11° C | 86% | 1014 hPa | 0.51 mm | - | - | - |
| 1777746190 | 10.56° C | 86% | 1014.3 hPa | 0 mm | - | - | - |
| 1777745592 | 11.67° C | 82% | 1014.5 hPa | 0 mm | - | - | - |
| 1777744992 | 12.78° C | 78% | 1014.2 hPa | 0 mm | - | - | - |
| 1777744245 | 13.33° C | 78% | 1014.1 hPa | 0 mm | - | - | - |
| 1777743645 | 12.22° C | 78% | 1014.2 hPa | 0.51 mm | - | - | - |
| 1777743045 | 13.33° C | 74% | 1014.3 hPa | 0.51 mm | - | - | - |
| 1777742444 | 13.89° C | 75% | 1014.5 hPa | 0.51 mm | - | - | - |
| 1777741844 | 13.33° C | 79% | 1014.6 hPa | 0.51 mm | - | - | - |
| 1777741245 | 12.22° C | 81% | 1014.7 hPa | 0.51 mm | - | - | - |
| 1777740645 | 11.67° C | 82% | 1014.8 hPa | 0.51 mm | - | - | - |
| 1777740045 | 12.78° C | 78% | 1014.7 hPa | 0 mm | - | - | - |
| 1777739445 | 11.67° C | 82% | 1014.8 hPa | 2.54 mm | - | - | - |
| 1777738844 | 10° C | 86% | 1015 hPa | 3.56 mm | - | - | - |
| 1777738244 | 10.56° C | 87% | 1015.3 hPa | 3.56 mm | - | - | - |
| 1777737646 | 10° C | 88% | 1015.6 hPa | 3.56 mm | - | - | - |
| 1777737046 | 9.44° C | 90% | 1016.2 hPa | 3.56 mm | - | - | - |
| 1777736445 | 10° C | 90% | 1016.6 hPa | 3.56 mm | - | - | - |
| 1777735845 | 10° C | 90% | 1016.3 hPa | 3.05 mm | - | - | - |
| 1777735245 | 10.56° C | 89% | 1016.3 hPa | 1.02 mm | - | - | - |
| 1777734644 | 11.67° C | 85% | 1015.8 hPa | 0 mm | - | - | - |
| 1777734044 | 12.22° C | 84% | 1015.6 hPa | 0 mm | - | - | - |
| 1777733444 | 11.67° C | 85% | 1015.5 hPa | 0.51 mm | - | - | - |
| 1777732844 | 11.67° C | 83% | 1015.5 hPa | 0.51 mm | - | - | - |
* Rain latest hour (hover to see other rain measurements)
** Current wind speed in m/s (hover to see current wind gust speed)